createdAt,value
2023-03-28T00:00:25.820Z,145846.81
2023-03-28T00:01:28.336Z,145863.63
2023-03-28T00:02:30.867Z,145855.22
2023-03-28T00:03:39.774Z,145843.22
2023-03-28T00:04:42.742Z,145864.84
2023-03-28T00:05:49.066Z,145862.44
2023-03-28T00:06:53.660Z,145855.22
2023-03-28T00:07:57.619Z,145848.00
2023-03-28T00:09:00.143Z,145850.41
2023-03-28T00:10:03.742Z,145857.63
2023-03-28T00:11:12.743Z,145903.38
2023-03-28T00:12:15.623Z,145880.53
2023-03-28T00:13:20.072Z,145888.94
2023-03-28T00:14:22.708Z,145892.53
2023-03-28T00:15:25.828Z,145881.72
2023-03-28T00:16:34.053Z,145928.66
2023-03-28T00:17:36.658Z,145910.63
2023-03-28T00:18:39.468Z,145922.66
2023-03-28T00:19:42.029Z,145919.03
2023-03-28T00:20:44.549Z,145946.75
2023-03-28T00:21:49.472Z,145946.75
2023-03-28T00:22:51.870Z,145915.44
2023-03-28T00:23:56.552Z,145915.44
2023-03-28T00:24:59.442Z,145886.53
2023-03-28T00:26:07.954Z,145920.25
2023-03-28T00:27:10.720Z,145855.22
2023-03-28T00:28:13.119Z,145843.22
2023-03-28T00:29:21.386Z,145866.03
2023-03-28T00:30:24.043Z,145833.53
2023-03-28T00:31:26.604Z,145833.53
2023-03-28T00:32:29.226Z,145827.53
2023-03-28T00:33:32.088Z,145820.31
2023-03-28T00:34:34.485Z,145814.31
2023-03-28T00:35:37.008Z,145821.53
2023-03-28T00:36:41.815Z,145828.75
2023-03-28T00:37:46.001Z,145843.22
2023-03-28T00:38:50.228Z,145848.00
2023-03-28T00:39:53.972Z,145838.34
2023-03-28T00:40:58.028Z,145848.00
2023-03-28T00:42:01.874Z,145851.63
2023-03-28T00:43:04.641Z,145852.81
2023-03-28T00:44:44.804Z,145908.22
2023-03-28T00:45:56.103Z,145860.03
2023-03-28T00:47:28.236Z,145913.03
2023-03-28T00:48:31.247Z,145868.44
2023-03-28T00:49:33.773Z,145860.03
2023-03-28T00:50:42.781Z,145902.16
2023-03-28T00:51:50.332Z,145884.13
2023-03-28T00:53:02.343Z,145839.56
2023-03-28T00:54:08.585Z,145833.53
2023-03-28T00:55:17.092Z,145852.81
2023-03-28T00:56:24.065Z,145820.31
2023-03-28T00:57:28.616Z,145807.06
2023-03-28T00:58:35.697Z,145813.13
2023-03-28T00:59:39.435Z,145807.06
2023-03-28T01:00:43.016Z,145773.34
2023-03-28T01:01:46.904Z,145773.34
2023-03-28T01:02:53.368Z,145799.84
2023-03-28T01:04:03.279Z,145802.25
2023-03-28T01:05:09.178Z,145799.84
2023-03-28T01:06:14.454Z,145803.44
2023-03-28T01:07:17.218Z,145780.63
2023-03-28T01:08:26.355Z,145825.13
2023-03-28T01:09:30.423Z,145775.75
2023-03-28T01:10:33.897Z,145780.63
2023-03-28T01:11:38.461Z,145783.03
2023-03-28T01:12:43.512Z,145785.44
2023-03-28T01:13:50.354Z,145804.66
2023-03-28T01:14:53.221Z,145772.16
2023-03-28T01:15:56.435Z,145769.75
2023-03-28T01:16:59.701Z,145758.94
2023-03-28T01:18:11.461Z,145748.13
2023-03-28T01:19:21.985Z,145804.66
2023-03-28T01:20:49.385Z,145811.91
2023-03-28T01:22:23.825Z,145795.03
2023-03-28T01:23:44.707Z,145810.72
2023-03-28T01:24:49.745Z,145799.84
2023-03-28T01:26:25.147Z,145798.66
2023-03-28T01:27:54.684Z,145784.22
2023-03-28T01:29:32.833Z,145773.34
2023-03-28T01:30:56.591Z,145751.72
2023-03-28T01:32:56.292Z,145763.75
2023-03-28T01:34:49.755Z,145763.75
2023-03-28T01:36:34.456Z,145773.34
2023-03-28T01:37:51.434Z,145779.41
2023-03-28T01:39:28.153Z,145797.44
2023-03-28T01:40:45.927Z,145827.53
2023-03-28T01:42:06.921Z,145826.34
2023-03-28T01:43:24.675Z,145833.53
2023-03-28T01:44:41.954Z,145813.13
2023-03-28T01:45:59.662Z,145810.72
2023-03-28T01:47:16.159Z,145799.84
2023-03-28T01:48:24.448Z,145807.06
2023-03-28T01:49:33.566Z,145758.94
2023-03-28T01:50:45.332Z,145795.03
2023-03-28T01:52:06.926Z,145817.91
2023-03-28T01:53:29.361Z,145814.31
2023-03-28T01:54:31.900Z,145778.22
2023-03-28T01:55:45.321Z,145816.72
2023-03-28T01:57:06.738Z,145848.00
2023-03-28T01:58:19.889Z,145839.56
2023-03-28T01:59:49.293Z,145844.41
2023-03-28T02:01:08.085Z,145867.25
2023-03-28T02:02:27.721Z,145866.03
2023-03-28T02:03:42.211Z,145882.94
2023-03-28T02:04:57.139Z,145867.25
2023-03-28T02:06:01.376Z,145843.22
2023-03-28T02:07:05.371Z,145860.03
2023-03-28T02:08:14.376Z,145857.63
2023-03-28T02:09:43.898Z,145873.25
2023-03-28T02:11:05.013Z,145821.53
2023-03-28T02:12:34.298Z,145864.84
2023-03-28T02:13:50.866Z,145862.44
2023-03-28T02:15:16.429Z,145844.41
2023-03-28T02:17:00.627Z,145823.94
2023-03-28T02:18:35.142Z,145809.47
2023-03-28T02:20:14.890Z,145795.03
2023-03-28T02:21:57.228Z,145755.34
2023-03-28T02:23:23.885Z,145742.06
2023-03-28T02:24:58.802Z,145696.38
2023-03-28T02:26:12.536Z,145659.06
2023-03-28T02:27:45.953Z,145643.41
2023-03-28T02:28:58.316Z,145641.00
2023-03-28T02:30:21.713Z,145642.22
2023-03-28T02:31:25.729Z,145645.81
2023-03-28T02:32:28.574Z,145641.00
2023-03-28T02:33:44.766Z,145662.69
2023-03-28T02:34:50.398Z,145621.78
2023-03-28T02:36:02.962Z,145619.38
2023-03-28T02:37:32.776Z,145610.94
2023-03-28T02:38:51.360Z,145614.53
2023-03-28T02:39:59.522Z,145619.38
2023-03-28T02:41:24.726Z,145608.53
2023-03-28T02:42:33.145Z,145619.38
2023-03-28T02:43:41.887Z,145629.00
2023-03-28T02:45:21.155Z,145641.00
2023-03-28T02:46:32.017Z,145645.81
2023-03-28T02:47:42.999Z,145672.28
2023-03-28T02:48:51.487Z,145714.44
2023-03-28T02:50:06.851Z,145708.38
2023-03-28T02:51:40.708Z,145691.56
2023-03-28T02:53:04.336Z,145713.19
2023-03-28T02:54:33.859Z,145710.78
2023-03-28T02:56:16.228Z,145720.44
2023-03-28T02:57:48.741Z,145703.56
2023-03-28T02:59:27.743Z,145713.19
2023-03-28T03:00:30.982Z,145657.88
2023-03-28T03:01:34.300Z,145662.69
2023-03-28T03:02:37.625Z,145655.47
2023-03-28T03:03:40.730Z,145666.28
2023-03-28T03:04:44.442Z,145645.81
2023-03-28T03:05:46.940Z,145681.94
2023-03-28T03:06:49.466Z,145695.16
2023-03-28T03:07:52.227Z,145671.09
2023-03-28T03:08:54.754Z,145655.47
2023-03-28T03:09:59.186Z,145618.19
2023-03-28T03:11:01.717Z,145585.72
2023-03-28T03:12:04.235Z,145564.03
2023-03-28T03:13:06.872Z,145564.03
2023-03-28T03:14:09.626Z,145544.78
2023-03-28T03:15:12.272Z,145547.19
2023-03-28T03:16:23.944Z,145561.66
2023-03-28T03:17:27.776Z,145556.84
2023-03-28T03:18:30.512Z,145530.38
2023-03-28T03:19:33.174Z,145535.19
2023-03-28T03:20:35.674Z,145547.19
2023-03-28T03:21:38.798Z,145537.59
2023-03-28T03:22:41.680Z,145546.00
2023-03-28T03:23:44.202Z,145559.25
2023-03-28T03:24:46.712Z,145554.44
2023-03-28T03:25:50.775Z,145566.44
2023-03-28T03:27:06.274Z,145584.50
2023-03-28T03:28:09.397Z,145612.13
2023-03-28T03:29:11.913Z,145632.59
2023-03-28T03:30:14.558Z,145631.41
2023-03-28T03:31:35.746Z,145635.00
2023-03-28T03:32:57.667Z,145655.47
2023-03-28T03:34:02.682Z,145648.22
2023-03-28T03:35:10.005Z,145641.00
2023-03-28T03:36:17.927Z,145633.81
2023-03-28T03:37:20.806Z,145633.81
2023-03-28T03:38:24.885Z,145650.66
2023-03-28T03:39:27.763Z,145672.28
2023-03-28T03:40:30.529Z,145668.69
2023-03-28T03:41:33.522Z,145691.56
2023-03-28T03:42:36.542Z,145689.16
2023-03-28T03:43:40.014Z,145696.38
2023-03-28T03:44:43.124Z,145701.16
2023-03-28T03:45:46.459Z,145702.38
2023-03-28T03:46:49.309Z,145710.78
2023-03-28T03:47:51.944Z,145701.16
2023-03-28T03:48:54.532Z,145685.56
2023-03-28T03:49:57.294Z,145690.34
2023-03-28T03:50:59.841Z,145693.97
2023-03-28T03:52:03.773Z,145708.38
2023-03-28T03:53:06.419Z,145703.56
2023-03-28T03:54:14.459Z,145697.56
2023-03-28T03:55:16.976Z,145685.56
2023-03-28T03:56:19.727Z,145685.56
2023-03-28T03:57:28.133Z,145686.75
2023-03-28T03:58:34.971Z,145697.56
2023-03-28T03:59:41.942Z,145698.75
2023-03-28T04:00:49.057Z,145695.16
2023-03-28T04:02:20.748Z,145684.34
2023-03-28T04:03:34.371Z,145686.75
2023-03-28T04:04:37.746Z,145680.69
2023-03-28T04:05:52.863Z,145669.88
2023-03-28T04:06:58.252Z,145662.69
2023-03-28T04:08:01.754Z,145643.41
2023-03-28T04:09:09.544Z,145648.22
2023-03-28T04:10:35.354Z,145645.81
2023-03-28T04:11:37.860Z,145638.59
2023-03-28T04:12:40.498Z,145643.41
2023-03-28T04:13:43.146Z,145650.66
2023-03-28T04:14:46.021Z,145623.00
2023-03-28T04:16:07.062Z,145681.94
2023-03-28T04:17:23.575Z,145624.19
2023-03-28T04:18:26.222Z,145614.53
2023-03-28T04:19:28.745Z,145621.78
2023-03-28T04:20:31.878Z,145598.91
2023-03-28T04:21:42.876Z,145578.47
2023-03-28T04:22:48.305Z,145539.97
2023-03-28T04:23:52.562Z,145525.56
2023-03-28T04:25:18.071Z,145496.72
2023-03-28T04:26:25.896Z,145511.13
2023-03-28T04:27:46.418Z,145505.13
2023-03-28T04:28:49.045Z,145496.72
2023-03-28T04:29:53.840Z,145489.50
2023-03-28T04:31:21.876Z,145535.19
2023-03-28T04:32:45.027Z,145535.19
2023-03-28T04:33:53.916Z,145499.09
2023-03-28T04:34:57.674Z,145500.31
2023-03-28T04:36:02.413Z,145505.13
2023-03-28T04:37:06.109Z,145478.66
2023-03-28T04:38:20.638Z,145491.91
2023-03-28T04:39:32.961Z,145476.25
2023-03-28T04:40:44.845Z,145471.44
2023-03-28T04:42:17.250Z,145477.44
2023-03-28T04:43:44.734Z,145457.03
2023-03-28T04:44:47.131Z,145434.19
2023-03-28T04:45:50.062Z,145439.00
2023-03-28T04:46:53.492Z,145458.25
2023-03-28T04:47:56.097Z,145455.84
2023-03-28T04:48:59.011Z,145479.84
2023-03-28T04:50:05.132Z,145485.84
2023-03-28T04:51:11.493Z,145479.84
2023-03-28T04:52:15.938Z,145499.09
2023-03-28T04:53:21.574Z,145518.31
2023-03-28T04:54:59.385Z,145539.97
2023-03-28T04:56:02.368Z,145538.78
2023-03-28T04:57:05.900Z,145542.38
2023-03-28T04:58:24.456Z,145537.59
2023-03-28T04:59:27.338Z,145566.44
2023-03-28T05:00:33.584Z,145558.03
2023-03-28T05:01:39.214Z,145571.25
2023-03-28T05:03:00.509Z,145584.50
2023-03-28T05:04:06.945Z,145582.06
2023-03-28T05:05:09.698Z,145595.31
2023-03-28T05:06:12.223Z,145600.13
2023-03-28T05:07:14.737Z,145598.91
2023-03-28T05:08:19.301Z,145602.53
2023-03-28T05:09:22.899Z,145583.25
2023-03-28T05:10:25.779Z,145608.53
2023-03-28T05:11:53.864Z,145597.72
2023-03-28T05:12:58.565Z,145592.91
2023-03-28T05:14:01.899Z,145591.72
2023-03-28T05:15:11.268Z,145582.06
2023-03-28T05:16:48.122Z,145592.91
2023-03-28T05:18:12.117Z,145576.06
2023-03-28T05:19:15.471Z,145590.50
2023-03-28T05:20:34.793Z,145592.91
2023-03-28T05:21:37.308Z,145592.91
2023-03-28T05:22:39.843Z,145597.72
2023-03-28T05:23:42.350Z,145589.31
2023-03-28T05:24:53.157Z,145607.31
2023-03-28T05:25:58.911Z,145607.31
2023-03-28T05:27:04.908Z,145616.97
2023-03-28T05:28:07.435Z,145619.38
2023-03-28T05:29:15.229Z,145609.72
2023-03-28T05:30:22.311Z,145624.19
2023-03-28T05:31:30.882Z,145614.53
2023-03-28T05:32:49.756Z,145627.78
2023-03-28T05:33:52.601Z,145629.00
2023-03-28T05:35:11.398Z,145647.00
2023-03-28T05:36:14.206Z,145623.00
2023-03-28T05:37:17.158Z,145633.81
2023-03-28T05:38:24.252Z,145650.66
2023-03-28T05:39:31.437Z,145655.47
2023-03-28T05:40:40.321Z,145650.66
2023-03-28T05:41:42.962Z,145642.22
2023-03-28T05:42:47.173Z,145655.47
2023-03-28T05:43:51.619Z,145653.06
2023-03-28T05:45:12.677Z,145681.94
2023-03-28T05:46:35.526Z,145668.69
2023-03-28T05:47:38.106Z,145674.69
2023-03-28T05:48:40.689Z,145678.28
2023-03-28T05:49:43.688Z,145673.50
2023-03-28T05:50:48.244Z,145705.97
2023-03-28T05:51:51.849Z,145681.94
2023-03-28T05:52:54.607Z,145684.34
2023-03-28T05:53:57.172Z,145679.50
2023-03-28T05:55:00.152Z,145685.56
2023-03-28T05:56:02.655Z,145675.91
2023-03-28T05:57:05.230Z,145701.16
2023-03-28T05:58:08.261Z,145701.16
2023-03-28T05:59:15.854Z,145698.75
2023-03-28T06:00:19.570Z,145720.44
2023-03-28T06:01:23.549Z,145708.38
2023-03-28T06:02:31.005Z,145719.25
2023-03-28T06:03:33.658Z,145742.06
2023-03-28T06:04:41.565Z,145752.94
2023-03-28T06:05:48.027Z,145757.75
2023-03-28T06:06:58.594Z,145775.75
2023-03-28T06:08:02.796Z,145787.81
2023-03-28T06:09:05.545Z,145799.84
2023-03-28T06:10:21.268Z,145819.13
2023-03-28T06:11:36.983Z,145817.91
2023-03-28T06:12:42.862Z,145821.53
2023-03-28T06:13:45.378Z,145845.59
2023-03-28T06:14:49.470Z,145846.81
2023-03-28T06:16:04.457Z,145858.84
2023-03-28T06:17:10.631Z,145850.41
2023-03-28T06:18:24.506Z,145851.63
2023-03-28T06:19:26.918Z,145880.53
2023-03-28T06:20:31.351Z,145893.75
2023-03-28T06:21:34.230Z,145929.84
2023-03-28T06:22:40.951Z,145944.34
2023-03-28T06:23:46.464Z,145985.25
2023-03-28T06:24:58.948Z,146006.97
2023-03-28T06:26:03.759Z,146006.97
2023-03-28T06:27:13.468Z,146012.97
2023-03-28T06:28:16.489Z,146028.59
2023-03-28T06:29:51.280Z,146062.34
2023-03-28T06:30:54.063Z,146062.34
2023-03-28T06:31:56.715Z,146106.94
2023-03-28T06:32:59.350Z,146157.50
2023-03-28T06:34:01.957Z,146231.00
2023-03-28T06:35:04.969Z,146263.56
2023-03-28T06:36:09.293Z,146333.50
2023-03-28T06:37:11.914Z,146378.09
2023-03-28T06:38:35.970Z,146445.63
2023-03-28T06:39:39.522Z,146544.59
2023-03-28T06:40:42.289Z,146595.28
2023-03-28T06:41:44.922Z,146660.44
2023-03-28T06:42:47.443Z,146746.13
2023-03-28T06:43:55.971Z,146758.22
2023-03-28T06:45:33.768Z,146831.84
2023-03-28T06:46:43.041Z,146888.63
2023-03-28T06:47:50.140Z,147013.03
2023-03-28T06:48:54.410Z,147062.56
2023-03-28T06:50:00.049Z,147168.94
2023-03-28T06:51:13.022Z,147185.88
2023-03-28T06:52:17.460Z,147235.41
2023-03-28T06:53:22.976Z,147412.00
2023-03-28T06:54:26.004Z,147358.75
2023-03-28T06:55:28.632Z,147542.66
2023-03-28T06:56:32.037Z,147605.63
2023-03-28T06:57:35.338Z,147528.09
2023-03-28T06:58:54.908Z,147560.81
2023-03-28T07:00:01.255Z,147439.81
2023-03-28T07:01:23.013Z,147347.88
2023-03-28T07:02:30.366Z,147199.16
2023-03-28T07:03:38.794Z,147098.78
2023-03-28T07:04:41.948Z,147000.94
2023-03-28T07:05:44.823Z,147020.28
2023-03-28T07:06:47.598Z,146984.03
2023-03-28T07:07:50.231Z,146996.09
2023-03-28T07:08:53.219Z,146933.28
2023-03-28T07:10:00.786Z,146806.47
2023-03-28T07:11:05.102Z,146747.31
2023-03-28T07:12:07.623Z,146696.66
2023-03-28T07:13:12.193Z,146689.41
2023-03-28T07:14:24.307Z,146665.25
2023-03-28T07:15:27.305Z,146711.13
2023-03-28T07:16:29.856Z,146620.59
2023-03-28T07:17:32.256Z,146730.44
2023-03-28T07:18:34.987Z,146686.97
2023-03-28T07:19:38.247Z,146771.47
2023-03-28T07:20:41.657Z,146875.31
2023-03-28T07:21:44.714Z,146955.03
2023-03-28T07:22:47.369Z,147046.88
2023-03-28T07:23:49.870Z,147216.09
2023-03-28T07:24:56.486Z,147155.66
2023-03-28T07:25:59.351Z,147366.00
2023-03-28T07:27:14.679Z,147462.78
2023-03-28T07:28:20.238Z,147484.56
2023-03-28T07:29:22.876Z,147627.38
2023-03-28T07:30:26.958Z,147714.53
2023-03-28T07:31:29.519Z,147548.69
2023-03-28T07:32:43.406Z,147453.09
2023-03-28T07:33:56.759Z,147482.16
2023-03-28T07:34:59.366Z,147453.09
2023-03-28T07:36:14.666Z,147338.19
2023-03-28T07:37:19.769Z,147324.91
2023-03-28T07:38:29.603Z,147376.91
2023-03-28T07:39:32.415Z,147359.97
2023-03-28T07:40:38.241Z,147247.53
2023-03-28T07:41:40.882Z,147203.97
2023-03-28T07:42:43.424Z,147121.81
2023-03-28T07:43:46.296Z,147155.66
2023-03-28T07:44:48.804Z,147177.44
2023-03-28T07:45:51.840Z,147078.28
2023-03-28T07:46:54.853Z,147123.03
2023-03-28T07:47:57.494Z,147142.34
2023-03-28T07:49:00.961Z,147100.00
2023-03-28T07:50:04.406Z,147084.31
2023-03-28T07:51:08.021Z,147075.81
2023-03-28T07:52:10.653Z,147124.22
2023-03-28T07:53:13.175Z,147315.25
2023-03-28T07:54:18.001Z,147387.78
2023-03-28T07:55:22.055Z,147399.88
2023-03-28T07:56:25.928Z,147375.72
2023-03-28T07:57:41.739Z,147380.53
2023-03-28T07:59:13.699Z,147466.41
2023-03-28T08:00:17.744Z,147704.88
2023-03-28T08:01:37.307Z,148036.78
2023-03-28T08:02:44.682Z,148136.16
2023-03-28T08:03:49.022Z,148276.81
2023-03-28T08:04:54.104Z,148640.78
2023-03-28T08:06:13.428Z,148599.53
2023-03-28T08:07:23.019Z,148822.91
2023-03-28T08:08:26.260Z,148837.50
2023-03-28T08:09:42.820Z,149022.16
2023-03-28T08:10:53.025Z,148939.56
2023-03-28T08:11:55.671Z,149213.00
2023-03-28T08:13:00.827Z,149158.28
2023-03-28T08:14:04.675Z,149151.00
2023-03-28T08:15:08.263Z,148827.75
2023-03-28T08:16:10.842Z,148856.94
2023-03-28T08:17:13.429Z,148753.69
2023-03-28T08:18:20.905Z,148667.50
2023-03-28T08:19:24.107Z,148462.38
2023-03-28T08:20:49.555Z,148546.06
2023-03-28T08:21:52.788Z,148481.81
2023-03-28T08:22:55.314Z,148514.56
2023-03-28T08:24:08.082Z,148318.06
2023-03-28T08:25:13.570Z,148377.44
2023-03-28T08:26:16.200Z,148368.97
2023-03-28T08:27:23.518Z,148466.00
2023-03-28T08:28:29.752Z,148656.59
2023-03-28T08:29:32.398Z,148689.34
2023-03-28T08:30:36.480Z,148910.41
2023-03-28T08:31:39.773Z,149119.41
2023-03-28T08:32:49.653Z,149180.19
2023-03-28T08:33:53.998Z,149294.41
2023-03-28T08:35:06.006Z,149437.97
2023-03-28T08:36:09.653Z,149416.06
2023-03-28T08:37:12.118Z,149302.97
2023-03-28T08:38:16.680Z,149141.28
2023-03-28T08:39:19.827Z,148934.66
2023-03-28T08:40:25.937Z,149035.50
2023-03-28T08:41:42.129Z,149221.50
2023-03-28T08:43:04.207Z,149210.56
2023-03-28T08:44:12.493Z,149321.19
2023-03-28T08:45:33.487Z,149301.75
2023-03-28T08:46:37.120Z,149231.19
2023-03-28T08:47:57.532Z,149081.69
2023-03-28T08:49:09.850Z,148828.97
2023-03-28T08:50:17.291Z,148701.47
2023-03-28T08:51:35.565Z,148713.66
2023-03-28T08:52:39.631Z,148683.28
2023-03-28T08:53:48.852Z,148764.59
2023-03-28T08:55:18.135Z,148978.41
2023-03-28T08:56:20.911Z,149223.91
2023-03-28T08:57:28.472Z,149442.84
2023-03-28T08:58:37.693Z,149406.38
2023-03-28T08:59:54.500Z,149413.66
2023-03-28T09:00:57.373Z,149571.84
2023-03-28T09:01:59.819Z,149622.91
2023-03-28T09:03:02.397Z,149502.47
2023-03-28T09:04:05.794Z,149347.97
2023-03-28T09:05:23.816Z,149484.19
2023-03-28T09:06:44.573Z,149452.56
2023-03-28T09:07:59.926Z,149270.13
2023-03-28T09:09:21.264Z,149226.34
2023-03-28T09:11:02.806Z,149260.38
2023-03-28T09:12:21.505Z,149452.56
2023-03-28T09:13:49.945Z,149245.81
2023-03-28T09:15:01.403Z,149354.06
2023-03-28T09:16:22.421Z,149287.13
2023-03-28T09:17:49.255Z,149231.19
2023-03-28T09:18:54.888Z,149429.44
2023-03-28T09:20:23.549Z,149574.28
2023-03-28T09:22:22.232Z,149437.97
2023-03-28T09:24:00.421Z,149305.41
2023-03-28T09:25:35.222Z,149267.72
2023-03-28T09:26:55.115Z,149345.56
2023-03-28T09:28:23.674Z,149356.47
2023-03-28T09:29:27.999Z,149259.16
2023-03-28T09:30:48.992Z,149396.59
2023-03-28T09:31:55.901Z,149435.56
2023-03-28T09:33:00.678Z,149659.41
2023-03-28T09:34:03.881Z,149652.13
2023-03-28T09:35:18.038Z,149755.56
2023-03-28T09:36:31.557Z,149910.25
2023-03-28T09:37:48.776Z,149971.13
2023-03-28T09:38:59.560Z,150121.03
2023-03-28T09:40:13.254Z,149961.41
2023-03-28T09:41:52.612Z,149560.84
2023-03-28T09:43:28.383Z,149344.34
2023-03-28T09:44:55.052Z,149086.53
2023-03-28T09:46:44.450Z,149112.13
2023-03-28T09:48:00.320Z,149175.31
2023-03-28T09:49:10.852Z,149329.69
2023-03-28T09:50:16.836Z,149383.25
2023-03-28T09:51:22.732Z,149050.09
2023-03-28T09:52:25.377Z,148911.63
2023-03-28T09:53:38.450Z,148996.63
2023-03-28T09:54:42.064Z,149063.44
2023-03-28T09:55:51.507Z,149272.56
2023-03-28T09:57:03.891Z,149532.88
2023-03-28T09:58:29.453Z,149540.16
2023-03-28T09:59:47.094Z,149562.13
2023-03-28T10:00:55.214Z,149733.69
2023-03-28T10:02:30.074Z,149705.69
2023-03-28T10:03:36.419Z,149708.13
2023-03-28T10:04:42.700Z,149552.31
2023-03-28T10:06:17.223Z,149138.88
2023-03-28T10:07:32.952Z,149000.25
2023-03-28T10:08:48.305Z,148887.31
2023-03-28T10:10:32.944Z,149345.56
2023-03-28T10:11:49.269Z,149518.25
2023-03-28T10:12:58.994Z,149636.34
2023-03-28T10:14:06.189Z,149969.94
2023-03-28T10:15:33.216Z,150309.91
2023-03-28T10:17:14.105Z,150563.59
2023-03-28T10:18:27.680Z,150624.63
2023-03-28T10:19:51.456Z,150491.63
2023-03-28T10:21:06.793Z,150146.59
2023-03-28T10:22:35.828Z,149894.44
2023-03-28T10:23:41.851Z,149399.09
2023-03-28T10:24:47.471Z,148971.09
2023-03-28T10:25:53.005Z,148499.97
2023-03-28T10:27:17.726Z,148524.25
2023-03-28T10:28:33.555Z,148410.19
2023-03-28T10:29:37.284Z,148259.84
2023-03-28T10:30:41.054Z,148262.28
2023-03-28T10:31:50.026Z,148429.63
2023-03-28T10:33:16.282Z,148655.38
2023-03-28T10:35:00.800Z,148759.75
2023-03-28T10:36:29.480Z,148805.88
2023-03-28T10:37:35.152Z,148972.34
2023-03-28T10:39:23.964Z,148733.03
2023-03-28T10:41:03.633Z,148486.66
2023-03-28T10:42:44.052Z,148356.84
2023-03-28T10:44:26.244Z,148057.38
2023-03-28T10:45:51.166Z,147991.97
2023-03-28T10:47:19.289Z,147968.94
2023-03-28T10:48:31.654Z,147844.09
2023-03-28T10:49:45.932Z,147784.75
2023-03-28T10:50:53.731Z,147666.16
2023-03-28T10:51:57.101Z,147637.09
2023-03-28T10:53:19.785Z,147593.50
2023-03-28T10:54:25.416Z,147600.78
2023-03-28T10:55:38.735Z,147520.84
2023-03-28T10:57:12.075Z,147501.47
2023-03-28T10:58:22.774Z,147494.22
2023-03-28T10:59:47.978Z,147586.25
2023-03-28T11:01:03.336Z,147620.13
2023-03-28T11:02:17.546Z,147545.06
2023-03-28T11:03:52.518Z,147529.31
2023-03-28T11:04:58.180Z,147549.91
2023-03-28T11:06:11.622Z,147637.09
2023-03-28T11:08:08.994Z,147767.84
2023-03-28T11:10:00.349Z,148104.63
2023-03-28T11:11:47.987Z,148254.97
2023-03-28T11:13:23.870Z,148478.13
2023-03-28T11:14:35.987Z,148737.88
2023-03-28T11:16:06.755Z,148830.19
2023-03-28T11:17:27.122Z,148905.50
2023-03-28T11:18:38.865Z,149154.63
2023-03-28T11:20:17.484Z,149229.97
2023-03-28T11:21:47.389Z,149133.97
2023-03-28T11:23:38.079Z,149209.34
2023-03-28T11:25:28.792Z,149306.59
2023-03-28T11:27:12.425Z,149227.56
2023-03-28T11:29:08.434Z,148680.88
2023-03-28T11:30:17.753Z,148628.66
2023-03-28T11:31:38.291Z,148421.16
2023-03-28T11:32:43.954Z,148265.91
2023-03-28T11:34:05.278Z,148159.19
2023-03-28T11:35:14.047Z,147966.50
2023-03-28T11:36:29.644Z,147879.22
2023-03-28T11:37:38.878Z,147848.94
2023-03-28T11:38:48.839Z,147716.97
2023-03-28T11:40:00.868Z,147691.53
2023-03-28T11:41:24.719Z,147595.91
2023-03-28T11:42:54.025Z,147612.88
2023-03-28T11:44:08.879Z,147776.31
2023-03-28T11:45:51.059Z,148046.44
2023-03-28T11:47:07.572Z,148110.69
2023-03-28T11:48:15.603Z,148022.19
2023-03-28T11:49:21.618Z,148036.78
2023-03-28T11:50:31.583Z,148004.06
2023-03-28T11:51:45.740Z,147951.94
2023-03-28T11:52:59.409Z,147878.03
2023-03-28T11:54:22.361Z,147784.75
2023-03-28T11:55:29.889Z,147726.63
2023-03-28T11:56:49.025Z,147687.91
2023-03-28T11:58:05.412Z,147663.69
2023-03-28T11:59:23.651Z,147645.56
2023-03-28T12:00:36.632Z,147628.59
2023-03-28T12:01:50.701Z,147549.91
2023-03-28T12:03:06.748Z,147495.44
2023-03-28T12:04:19.412Z,147568.13
2023-03-28T12:05:40.580Z,147547.47
2023-03-28T12:07:11.541Z,147577.78
2023-03-28T12:08:31.112Z,147517.22
2023-03-28T12:09:44.551Z,147559.63
2023-03-28T12:10:52.942Z,147629.78
2023-03-28T12:12:11.954Z,147685.50
2023-03-28T12:13:17.430Z,147656.44
2023-03-28T12:14:41.674Z,147640.72
2023-03-28T12:16:00.862Z,147606.84
2023-03-28T12:17:16.340Z,147554.78
2023-03-28T12:18:43.702Z,147516.03
2023-03-28T12:19:54.753Z,147450.69
2023-03-28T12:21:11.905Z,147461.56
2023-03-28T12:22:26.869Z,147358.75
2023-03-28T12:24:08.581Z,147345.47
2023-03-28T12:25:30.025Z,147397.44
2023-03-28T12:27:06.986Z,147409.56
2023-03-28T12:28:49.847Z,147439.81
2023-03-28T12:30:00.418Z,147349.09
2023-03-28T12:31:16.517Z,147378.13
2023-03-28T12:32:50.135Z,147351.50
2023-03-28T12:34:22.235Z,147312.81
2023-03-28T12:35:59.338Z,147308.00
2023-03-28T12:37:14.799Z,147344.28
2023-03-28T12:38:40.598Z,147378.13
2023-03-28T12:40:24.659Z,147390.19
2023-03-28T12:41:40.133Z,147424.06
2023-03-28T12:42:45.761Z,147419.25
2023-03-28T12:43:54.051Z,147409.56
2023-03-28T12:45:06.875Z,147453.09
2023-03-28T12:46:12.573Z,147519.66
2023-03-28T12:47:22.843Z,147530.53
2023-03-28T12:48:37.255Z,147598.31
2023-03-28T12:49:46.000Z,147629.78
2023-03-28T12:50:57.523Z,147678.22
2023-03-28T12:52:06.554Z,147646.75
2023-03-28T12:53:12.788Z,147690.31
2023-03-28T12:54:16.513Z,147624.97
2023-03-28T12:55:25.729Z,147514.81
2023-03-28T12:56:31.965Z,147490.59
2023-03-28T12:57:46.699Z,147509.97
2023-03-28T12:59:35.449Z,147490.59
2023-03-28T13:00:40.609Z,147466.41
2023-03-28T13:02:26.115Z,147514.81
2023-03-28T13:03:57.811Z,147516.03
2023-03-28T13:05:46.135Z,147491.81
2023-03-28T13:07:07.145Z,147467.59
2023-03-28T13:08:15.918Z,147508.78
2023-03-28T13:09:30.419Z,147525.69
2023-03-28T13:10:46.506Z,147524.47
2023-03-28T13:12:03.425Z,147450.69
2023-03-28T13:13:34.864Z,147372.09
2023-03-28T13:14:41.240Z,147245.13
2023-03-28T13:16:07.371Z,147283.81
2023-03-28T13:17:21.900Z,147263.22
2023-03-28T13:18:26.590Z,147303.13
2023-03-28T13:19:46.625Z,147380.53
2023-03-28T13:20:52.096Z,147448.28
2023-03-28T13:21:57.715Z,147549.91
2023-03-28T13:23:07.770Z,147606.84
2023-03-28T13:24:25.637Z,147629.78
2023-03-28T13:25:29.715Z,147632.25
2023-03-28T13:26:59.236Z,147723.00
2023-03-28T13:28:31.271Z,147719.38
2023-03-28T13:29:51.939Z,147806.56
2023-03-28T13:31:26.993Z,147885.28
2023-03-28T13:32:37.461Z,147823.50
2023-03-28T13:33:49.400Z,147713.34
2023-03-28T13:34:57.852Z,147719.38
2023-03-28T13:36:00.567Z,147721.81
2023-03-28T13:37:22.951Z,147755.69
2023-03-28T13:38:28.648Z,147784.75
2023-03-28T13:39:33.554Z,147775.09
2023-03-28T13:40:57.587Z,147864.72
2023-03-28T13:42:01.071Z,147955.56
2023-03-28T13:43:05.002Z,147878.03
2023-03-28T13:44:16.935Z,147965.28
2023-03-28T13:45:24.004Z,147971.34
2023-03-28T13:46:36.632Z,147875.59
2023-03-28T13:47:41.510Z,147809.00